Time;durP1;ratioP1;P1;durP2;ratioP2;P2;SDS_P1;SDS_P2;PMS_P1;PMS_P2;Temp;Humidity;BMP_temperature;BMP_pressure;BME280_temperature;BME280_humidity;BME280_pressure;Samples;Min_cycle;Max_cycle;Signal;HPM_P1;HPM_P2
2020/12/08 00:02:03;;;;;;;10.95;7.18;;;;;;;4.64;90.15;99764.66;4976940;28;20105;-77
2020/12/08 00:04:29;;;;;;;10.98;6.80;;;;;;;4.53;90.22;99752.75;4961112;28;20471;-77
2020/12/08 00:06:54;;;;;;;10.18;6.85;;;;;;;4.50;89.91;99726.47;4960663;28;20049;-76
2020/12/08 00:09:20;;;;;;;10.95;7.18;;;;;;;4.68;89.70;99761.81;4976426;28;20066;-76
2020/12/08 00:11:48;;;;;;;10.48;6.88;;;;;;;4.68;89.48;99760.94;4976256;28;20034;-78
2020/12/08 00:14:14;;;;;;;11.52;7.25;;;;;;;4.70;89.09;99762.59;4976223;28;20034;-77
2020/12/08 00:16:41;;;;;;;12.32;7.53;;;;;;;4.50;89.72;99741.47;4994128;28;20030;-79
2020/12/08 00:19:10;;;;;;;11.60;7.88;;;;;;;4.67;89.89;99767.16;4960446;28;20034;-78
2020/12/08 00:21:37;;;;;;;13.25;8.32;;;;;;;4.37;90.05;99725.31;4976387;28;20480;-79
2020/12/08 00:24:02;;;;;;;12.93;8.52;;;;;;;4.24;90.57;99718.81;4976242;28;20126;-80
2020/12/08 00:26:28;;;;;;;13.75;8.35;;;;;;;4.58;90.19;99763.13;4976491;28;20167;-79
2020/12/08 00:28:53;;;;;;;15.18;8.82;;;;;;;4.53;90.38;99758.03;4976600;28;20172;-80
2020/12/08 00:31:24;;;;;;;14.30;8.75;;;;;;;4.60;90.57;99769.19;4976534;28;20038;-76
2020/12/08 00:33:50;;;;;;;13.00;8.45;;;;;;;4.60;90.55;99767.41;4993985;28;20034;-77
2020/12/08 00:36:15;;;;;;;14.07;8.68;;;;;;;4.52;90.35;99766.88;4976324;28;20387;-76
2020/12/08 00:38:41;;;;;;;15.35;9.27;;;;;;;4.41;91.02;99758.56;4976217;28;20425;-78
2020/12/08 00:41:06;;;;;;;13.40;8.88;;;;;;;4.51;90.93;99770.44;4993263;28;20030;-76
2020/12/08 00:43:32;;;;;;;15.55;8.60;;;;;;;4.44;90.68;99758.47;4976714;28;20042;-79
2020/12/08 00:45:57;;;;;;;14.15;8.77;;;;;;;4.56;90.22;99775.56;4976368;28;20388;-80
2020/12/08 00:48:22;;;;;;;13.52;9.18;;;;;;;4.53;90.10;99768.59;4975624;28;20038;-80
2020/12/08 00:50:48;;;;;;;13.90;8.73;;;;;;;4.50;90.11;99778.44;4976074;28;20086;-78
2020/12/08 00:53:13;;;;;;;15.45;9.20;;;;;;;4.33;90.27;99755.38;4992932;28;20440;-79
2020/12/08 00:55:39;;;;;;;14.95;9.18;;;;;;;4.59;90.33;99784.19;4976198;28;20520;-80
2020/12/08 00:58:04;;;;;;;14.05;9.50;;;;;;;4.59;90.30;99789.47;4976138;28;20038;-79
2020/12/08 01:00:30;;;;;;;14.45;9.23;;;;;;;4.59;90.23;99784.19;4993277;28;20072;-81
2020/12/08 01:02:55;;;;;;;13.85;8.75;;;;;;;4.32;90.24;99745.75;4993398;28;20058;-80
2020/12/08 01:05:22;;;;;;;15.45;9.57;;;;;;;4.65;89.57;99790.16;4993164;28;20113;-79
2020/12/08 01:07:47;;;;;;;15.13;9.02;;;;;;;4.65;89.39;99766.38;4976210;28;20202;-80
2020/12/08 01:10:13;;;;;;;14.35;9.27;;;;;;;4.56;89.38;99757.91;4963909;28;20107;-77
2020/12/08 01:12:38;;;;;;;13.52;8.50;;;;;;;4.76;89.16;99775.53;4997715;28;20085;-77
2020/12/08 01:15:05;;;;;;;15.30;9.73;;;;;;;4.70;88.91;99775.81;4997344;28;20034;-77
2020/12/08 01:17:32;;;;;;;16.55;9.80;;;;;;;4.55;89.08;99769.41;4996956;28;20035;-76
2020/12/08 01:19:58;;;;;;;16.80;10.13;;;;;;;4.53;89.72;99771.25;4997076;28;20452;-78
2020/12/08 01:22:23;;;;;;;15.65;9.30;;;;;;;4.43;89.30;99738.22;4979451;28;20034;-77
2020/12/08 01:24:48;;;;;;;15.57;10.05;;;;;;;4.64;88.96;99769.94;4997016;28;20503;-77
2020/12/08 01:27:15;;;;;;;17.85;9.90;;;;;;;4.56;89.91;99773.78;4996979;28;20168;-77
2020/12/08 01:29:41;;;;;;;15.27;9.70;;;;;;;4.56;90.01;99768.50;4997079;28;20424;-75
2020/12/08 01:32:06;;;;;;;17.35;9.07;;;;;;;4.57;89.63;99764.91;4963528;28;20122;-76
2020/12/08 01:34:32;;;;;;;15.68;9.07;;;;;;;4.32;89.66;99719.34;4996465;28;20042;-75
2020/12/08 01:36:57;;;;;;;14.75;8.82;;;;;;;4.45;89.19;99739.03;4979436;28;20480;-77
2020/12/08 01:39:23;;;;;;;14.48;8.95;;;;;;;4.27;90.00;99734.56;4996630;28;20110;-76
2020/12/08 01:41:48;;;;;;;13.85;8.30;;;;;;;4.46;88.99;99739.91;4963440;28;20103;-77
2020/12/08 01:44:15;;;;;;;14.35;8.18;;;;;;;4.58;89.04;99771.91;4996481;28;20117;-78
2020/12/08 01:46:41;;;;;;;14.93;7.80;;;;;;;4.70;88.90;99767.00;4979597;28;20031;-79
2020/12/08 01:49:07;;;;;;;10.55;7.07;;;;;;;4.70;88.00;99769.66;4996987;28;20038;-77
2020/12/08 01:51:33;;;;;;;14.05;7.65;;;;;;;4.68;87.75;99764.44;4962927;28;20130;-78
2020/12/08 01:53:59;;;;;;;13.02;7.22;;;;;;;4.69;87.88;99765.31;4979467;28;20643;-78
2020/12/08 01:56:24;;;;;;;11.52;7.95;;;;;;;4.50;88.48;99752.03;4962635;28;20030;-79
2020/12/08 01:58:49;;;;;;;11.88;7.40;;;;;;;4.27;87.94;99729.28;4996703;28;20030;-78
2020/12/08 02:01:15;;;;;;;12.43;7.63;;;;;;;4.36;88.59;99763.22;4978842;28;20096;-81
2020/12/08 02:03:42;;;;;;;10.80;7.78;;;;;;;4.29;88.71;99736.19;4962812;28;20034;-80
2020/12/08 02:06:08;;;;;;;12.45;8.18;;;;;;;4.42;89.08;99777.91;4996455;28;20097;-80
2020/12/08 02:08:35;;;;;;;13.82;7.95;;;;;;;4.34;89.55;99772.94;4962951;28;20125;-78
2020/12/08 02:11:01;;;;;;;13.07;7.47;;;;;;;4.54;88.35;99765.06;4996597;28;20071;-78
2020/12/08 02:13:26;;;;;;;14.20;8.93;;;;;;;4.25;88.31;99747.81;4995978;28;20423;-77
2020/12/08 02:15:52;;;;;;;14.43;8.85;;;;;;;4.39;89.17;99770.13;4962724;28;20488;-78
2020/12/08 02:18:19;;;;;;;13.40;8.13;;;;;;;4.11;89.66;99733.47;4995856;28;20566;-78
2020/12/08 02:20:44;;;;;;;15.55;9.27;;;;;;;4.32;89.69;99766.88;4994871;28;20034;-77
2020/12/08 02:23:10;;;;;;;17.20;8.90;;;;;;;4.26;88.90;99764.53;4996242;28;20037;-78
2020/12/08 02:25:36;;;;;;;14.52;8.52;;;;;;;4.36;89.05;99789.59;4978527;28;20045;-78
2020/12/08 02:28:02;;;;;;;18.15;9.55;;;;;;;4.18;89.04;99780.66;4978594;28;20113;-77
2020/12/08 02:30:27;;;;;;;17.65;9.20;;;;;;;4.31;89.09;99779.22;4995628;28;20061;-81
2020/12/08 02:32:53;;;;;;;17.60;9.02;;;;;;;4.30;89.04;99771.38;4978481;28;20451;-83
2020/12/08 02:35:19;;;;;;;17.55;9.02;;;;;;;4.12;88.44;99728.13;4978225;28;20388;-75
2020/12/08 02:37:44;;;;;;;16.75;9.05;;;;;;;4.32;88.19;99761.59;4978566;28;20035;-75
2020/12/08 02:40:10;;;;;;;15.82;9.00;;;;;;;4.44;88.57;99769.03;4995842;28;20439;-76
2020/12/08 02:42:35;;;;;;;15.95;8.77;;;;;;;4.13;88.23;99715.78;4977911;28;20034;-76
2020/12/08 02:45:01;;;;;;;17.25;9.18;;;;;;;4.06;88.91;99719.63;4978482;28;20088;-75
2020/12/08 02:47:26;;;;;;;14.35;8.65;;;;;;;4.38;88.41;99768.41;4995223;28;20026;-76
2020/12/08 02:49:54;;;;;;;15.15;8.77;;;;;;;4.29;89.32;99781.06;4977935;28;20047;-75
2020/12/08 02:52:22;;;;;;;16.17;9.35;;;;;;;4.29;89.25;99769.66;4994973;28;20051;-75
2020/12/08 02:54:49;;;;;;;17.70;8.75;;;;;;;4.37;89.32;99772.84;4962143;28;20047;-78
2020/12/08 02:57:15;;;;;;;12.98;8.30;;;;;;;4.32;88.98;99767.75;4977641;28;20102;-76
2020/12/08 02:59:41;;;;;;;13.32;7.85;;;;;;;4.33;89.28;99781.78;4977895;28;20042;-82
2020/12/08 03:02:07;;;;;;;14.38;8.68;;;;;;;4.30;89.44;99782.78;4995484;28;20034;-82
2020/12/08 03:04:32;;;;;;;13.50;8.57;;;;;;;4.24;90.06;99776.91;4977787;28;20061;-82
2020/12/08 03:06:58;;;;;;;15.52;8.43;;;;;;;4.21;89.99;99777.03;4961874;28;20038;-82
2020/12/08 03:09:23;;;;;;;14.48;8.18;;;;;;;4.10;90.44;99759.00;4977387;28;20042;-80
2020/12/08 03:11:49;;;;;;;13.50;8.88;;;;;;;4.28;90.47;99784.66;4978237;28;20034;-82
2020/12/08 03:14:14;;;;;;;14.40;8.15;;;;;;;4.25;91.09;99781.28;4995263;28;20041;-79
2020/12/08 03:16:40;;;;;;;15.18;9.60;;;;;;;4.22;91.40;99786.66;4994842;28;20117;-79
2020/12/08 03:19:05;;;;;;;15.02;9.48;;;;;;;4.11;91.08;99775.69;4977675;28;20046;-81
2020/12/08 03:21:35;;;;;;;15.98;9.10;;;;;;;4.39;89.93;99770.13;4994785;28;20365;-79
2020/12/08 03:24:00;;;;;;;17.85;9.73;;;;;;;4.31;90.46;99779.22;4994840;28;20039;-79
2020/12/08 03:26:26;;;;;;;20.52;11.05;;;;;;;4.09;90.84;99744.09;4977350;28;20045;-79
2020/12/08 03:28:52;;;;;;;20.38;10.80;;;;;;;4.27;91.17;99771.50;4995076;28;20077;-79
2020/12/08 03:31:17;;;;;;;20.63;11.02;;;;;;;4.21;90.87;99762.06;4994151;28;20038;-79
2020/12/08 03:33:43;;;;;;;18.55;10.63;;;;;;;4.24;90.97;99782.19;4994617;28;20031;-79
2020/12/08 03:36:18;;;;;;;19.33;10.73;;;;;;;4.26;90.96;99785.63;4994638;28;20089;-79
2020/12/08 03:38:45;;;;;;;18.55;10.95;;;;;;;4.19;90.98;99789.44;4977536;28;20447;-80
2020/12/08 03:41:24;;;;;;;17.85;11.90;;;;;;;4.15;91.07;99804.56;4994575;28;20046;-77
2020/12/08 03:43:51;;;;;;;20.08;11.48;;;;;;;4.05;91.68;99797.06;4994451;28;20061;-77
2020/12/08 03:46:26;;;;;;;21.27;11.35;;;;;;;4.11;92.14;99791.53;4961208;28;20042;-78
2020/12/08 03:48:52;;;;;;;18.50;10.30;;;;;;;4.14;91.76;99786.97;4994649;28;20407;-78
2020/12/08 03:51:20;;;;;;;22.38;11.65;;;;;;;4.05;92.15;99775.94;4994065;28;20068;-75
2020/12/08 03:53:46;;;;;;;23.52;11.57;;;;;;;3.90;92.44;99745.78;4994157;28;20038;-77
2020/12/08 03:56:16;;;;;;;20.08;11.32;;;;;;;4.14;91.99;99781.69;4994350;28;20113;-76
2020/12/08 03:58:42;;;;;;;18.48;10.55;;;;;;;4.17;90.37;99765.75;4994357;28;20066;-78
2020/12/08 04:01:16;;;;;;;16.20;10.18;;;;;;;4.23;90.92;99788.38;4994390;28;20074;-77
2020/12/08 04:03:43;;;;;;;19.27;10.05;;;;;;;4.00;91.85;99781.44;4994038;28;20034;-76
2020/12/08 04:06:09;;;;;;;17.63;10.82;;;;;;;4.03;92.30;99790.06;4994252;28;20038;-78
2020/12/08 04:08:34;;;;;;;21.38;10.80;;;;;;;4.02;92.50;99787.50;4993705;28;20029;-77
2020/12/08 04:10:59;;;;;;;19.70;10.80;;;;;;;3.86;92.43;99789.91;4976519;28;20472;-77
2020/12/08 04:13:25;;;;;;;18.17;10.90;;;;;;;4.09;92.31;99820.63;4993532;28;20555;-77
2020/12/08 04:15:50;;;;;;;17.08;10.32;;;;;;;3.97;92.09;99808.81;4976986;28;20030;-77
2020/12/08 04:18:16;;;;;;;20.70;11.23;;;;;;;3.99;92.23;99819.28;4994222;28;20457;-77
2020/12/08 04:20:43;;;;;;;15.52;10.48;;;;;;;4.02;92.65;99821.81;4993661;28;20065;-79
2020/12/08 04:23:12;;;;;;;19.73;11.15;;;;;;;3.98;92.79;99820.22;4993828;28;20057;-80
2020/12/08 04:25:38;;;;;;;17.38;10.88;;;;;;;4.00;93.16;99827.16;4993598;28;20042;-78
2020/12/08 04:28:05;;;;;;;22.27;11.32;;;;;;;4.03;93.28;99827.00;4993929;28;20042;-78
2020/12/08 04:30:31;;;;;;;21.20;12.00;;;;;;;4.07;92.96;99837.47;4993614;28;20042;-77
2020/12/08 04:32:56;;;;;;;16.88;10.70;;;;;;;4.06;93.14;99835.75;4994102;28;20369;-77
2020/12/08 04:35:22;;;;;;;17.38;11.02;;;;;;;4.10;93.23;99834.69;4976033;28;20066;-80
2020/12/08 04:37:47;;;;;;;19.88;10.90;;;;;;;4.10;92.88;99832.06;4960097;28;20039;-79
2020/12/08 04:40:13;;;;;;;16.42;11.00;;;;;;;4.02;92.56;99827.94;4976278;28;20035;-79
2020/12/08 04:42:48;;;;;;;16.90;9.93;;;;;;;4.06;90.92;99793.53;4992412;28;20365;-79
2020/12/08 04:45:15;;;;;;;17.48;10.27;;;;;;;3.93;91.09;99786.09;4976448;28;20076;-78
2020/12/08 04:47:45;;;;;;;15.32;9.73;;;;;;;4.25;90.48;99829.66;4993314;28;20034;-81
2020/12/08 04:50:12;;;;;;;17.13;10.57;;;;;;;4.11;90.92;99841.69;4976148;28;20077;-82
2020/12/08 04:52:38;;;;;;;17.45;10.43;;;;;;;4.10;91.67;99853.16;4975577;28;20093;-79
2020/12/08 04:55:04;;;;;;;19.58;10.85;;;;;;;3.97;91.13;99829.06;4976386;28;20480;-76
2020/12/08 04:57:30;;;;;;;19.25;9.82;;;;;;;4.09;90.75;99846.19;4959904;28;20034;-78
2020/12/08 05:00:10;;;;;;;15.43;9.77;;;;;;;4.01;90.74;99828.84;4976491;28;20395;-78
2020/12/08 05:02:50;;;;;;;16.73;9.48;;;;;;;4.03;90.58;99845.47;4993292;28;20036;-77
2020/12/08 05:05:17;;;;;;;16.90;10.07;;;;;;;3.77;91.22;99831.63;4976744;28;20092;-77
2020/12/08 05:07:43;;;;;;;17.33;9.90;;;;;;;3.74;90.99;99829.94;4979199;28;20041;-78
2020/12/08 05:10:09;;;;;;;13.73;9.13;;;;;;;3.97;90.63;99852.81;4982278;28;20046;-78
2020/12/08 05:12:34;;;;;;;15.77;9.10;;;;;;;3.80;90.94;99850.81;4979438;28;20027;-77
2020/12/08 05:15:00;;;;;;;19.63;10.20;;;;;;;3.66;91.31;99842.56;4996451;28;20030;-77
2020/12/08 05:17:27;;;;;;;17.75;10.98;;;;;;;3.75;91.34;99855.41;4997318;28;20030;-79
2020/12/08 05:20:08;;;;;;;17.60;10.10;;;;;;;3.82;90.52;99859.53;4978992;28;20467;-78
2020/12/08 05:22:38;;;;;;;21.42;11.45;;;;;;;3.79;90.49;99851.75;4996097;28;20387;-79
2020/12/08 05:25:11;;;;;;;18.35;11.13;;;;;;;3.73;90.59;99854.59;4996388;28;20038;-78
2020/12/08 05:27:36;;;;;;;21.65;11.52;;;;;;;3.63;90.18;99825.09;4993468;28;20031;-77
2020/12/08 05:30:07;;;;;;;22.45;10.73;;;;;;;3.44;90.62;99801.19;4993416;28;20377;-79
2020/12/08 05:32:37;;;;;;;22.77;11.82;;;;;;;3.75;90.47;99855.41;4993164;28;20125;-77
2020/12/08 05:35:08;;;;;;;22.67;11.88;;;;;;;3.72;90.98;99863.44;4993294;28;20030;-78
2020/12/08 05:37:35;;;;;;;23.55;12.35;;;;;;;3.72;91.31;99874.00;4993103;28;20023;-77
2020/12/08 05:40:04;;;;;;;24.08;11.75;;;;;;;3.64;91.03;99865.50;4975863;28;20117;-76
2020/12/08 05:42:32;;;;;;;27.10;13.02;;;;;;;3.64;91.69;99865.50;4975658;28;20065;-78
2020/12/08 05:44:59;;;;;;;22.75;12.48;;;;;;;3.72;91.12;99874.00;4993199;28;20065;-75
2020/12/08 05:47:24;;;;;;;24.40;13.43;;;;;;;3.55;91.05;99839.47;4993057;28;20030;-76
2020/12/08 05:50:02;;;;;;;24.00;12.20;;;;;;;3.48;90.57;99830.97;4992871;28;20053;-76
2020/12/08 05:52:35;;;;;;;23.35;12.27;;;;;;;3.78;90.31;99879.06;4976966;28;20138;-75
2020/12/08 05:55:11;;;;;;;27.42;13.43;;;;;;;3.70;91.33;99875.84;4977795;28;20400;-77
2020/12/08 05:57:38;;;;;;;26.15;13.68;;;;;;;3.72;90.63;99874.00;4996494;28;20113;-78
2020/12/08 06:00:24;;;;;;;25.00;13.20;;;;;;;3.77;90.29;99871.19;4979352;28;20535;-78
2020/12/08 06:02:50;;;;;;;24.38;12.93;;;;;;;3.58;89.90;99834.97;4996207;28;20089;-80
2020/12/08 06:05:29;;;;;;;21.83;11.70;;;;;;;3.72;89.75;99880.13;4996712;28;20069;-78
2020/12/08 06:07:55;;;;;;;22.40;12.82;;;;;;;3.82;89.32;99885.06;4996194;28;20129;-79
2020/12/08 06:10:20;;;;;;;23.77;12.75;;;;;;;3.56;89.48;99846.47;4996378;28;20118;-79
2020/12/08 06:12:59;;;;;;;20.02;12.73;;;;;;;3.73;89.21;99870.44;4996031;28;20034;-79
2020/12/08 06:15:36;;;;;;;21.73;13.48;;;;;;;3.75;89.84;99884.41;4996196;28;20497;-78
2020/12/08 06:18:02;;;;;;;23.00;12.57;;;;;;;3.71;89.76;99882.84;4996016;28;20046;-79
2020/12/08 06:20:27;;;;;;;24.73;13.32;;;;;;;3.81;89.20;99905.31;4962321;28;20488;-79
2020/12/08 06:22:56;;;;;;;23.98;12.77;;;;;;;3.53;89.71;99871.19;4995727;28;20039;-78
2020/12/08 06:25:22;;;;;;;26.40;13.75;;;;;;;3.57;89.91;99886.00;4962482;28;20030;-75
2020/12/08 06:27:48;;;;;;;28.48;13.57;;;;;;;3.69;89.88;99906.63;4978192;28;20061;-75
2020/12/08 06:30:13;;;;;;;28.30;13.40;;;;;;;3.64;90.03;99907.72;4978799;28;20361;-75
2020/12/08 06:32:41;;;;;;;24.55;13.07;;;;;;;3.78;89.42;99918.63;4962190;28;20061;-74
2020/12/08 06:35:15;;;;;;;27.40;13.90;;;;;;;3.68;89.24;99917.25;4962189;28;20049;-77
2020/12/08 06:37:53;;;;;;;25.40;13.45;;;;;;;3.48;88.98;99878.44;4996129;28;20026;-76
2020/12/08 06:40:23;;;;;;;23.52;13.45;;;;;;;3.59;89.73;99905.25;4996181;28;20030;-76
2020/12/08 06:42:50;;;;;;;24.90;13.45;;;;;;;3.42;90.52;99892.69;4978311;28;20517;-76
2020/12/08 06:45:21;;;;;;;28.83;15.07;;;;;;;3.58;90.67;99937.81;4978387;28;20027;-77
2020/12/08 06:47:47;;;;;;;29.25;14.40;;;;;;;3.65;90.72;99941.06;4995623;28;20030;-77
2020/12/08 06:50:28;;;;;;;29.85;14.00;;;;;;;3.66;90.12;99930.47;4978443;28;20037;-76
2020/12/08 06:52:59;;;;;;;24.35;13.80;;;;;;;3.69;88.78;99919.81;4978104;28;20038;-77
2020/12/08 06:55:26;;;;;;;27.90;14.85;;;;;;;3.77;88.91;99956.47;4978318;28;20038;-73
2020/12/08 06:57:53;;;;;;;24.17;13.18;;;;;;;3.76;89.05;99949.44;4977908;28;20403;-73
2020/12/08 07:00:19;;;;;;;27.02;13.77;;;;;;;3.58;88.85;99915.88;4995393;28;20486;-73
2020/12/08 07:02:50;;;;;;;23.35;13.95;;;;;;;3.73;89.23;99939.88;4977887;28;20030;-75
2020/12/08 07:05:27;;;;;;;26.73;14.27;;;;;;;3.87;88.81;99957.00;4995054;28;20062;-72
2020/12/08 07:07:53;;;;;;;29.35;14.85;;;;;;;3.90;88.77;99949.81;4994913;28;20034;-75
2020/12/08 07:10:21;;;;;;;28.55;13.90;;;;;;;3.73;88.89;99920.56;4995067;28;20161;-76
2020/12/08 07:12:54;;;;;;;27.13;14.00;;;;;;;3.87;88.22;99935.88;4994945;28;20088;-75
2020/12/08 07:15:24;;;;;;;28.48;12.45;;;;;;;3.79;87.59;99901.88;4995116;28;20037;-75
2020/12/08 07:18:07;;;;;;;24.08;12.50;;;;;;;3.96;88.32;99920.56;4994629;28;20373;-75
2020/12/08 07:20:34;;;;;;;26.90;13.15;;;;;;;3.98;88.19;99920.50;4994980;28;20109;-76
2020/12/08 07:23:04;;;;;;;29.00;12.65;;;;;;;3.83;88.03;99908.75;4994782;28;20057;-76
2020/12/08 07:25:30;;;;;;;22.33;12.55;;;;;;;3.93;88.53;99925.94;4995105;28;20034;-75
2020/12/08 07:27:56;;;;;;;24.17;12.73;;;;;;;3.75;89.29;99924.00;4994597;28;20038;-75
2020/12/08 07:30:27;;;;;;;24.35;12.93;;;;;;;3.86;89.38;99929.75;4994759;28;20042;-74
2020/12/08 07:32:53;;;;;;;25.65;13.13;;;;;;;3.86;88.54;99895.44;4994543;28;20389;-78
2020/12/08 07:35:30;;;;;;;24.50;12.30;;;;;;;3.93;87.53;99910.09;4977599;28;20038;-74
2020/12/08 07:37:59;;;;;;;28.10;12.77;;;;;;;3.74;88.24;99909.09;4961100;28;20042;-76
2020/12/08 07:40:36;;;;;;;28.73;12.77;;;;;;;3.78;88.23;99934.44;4977462;28;20129;-76
2020/12/08 07:43:03;;;;;;;27.00;13.68;;;;;;;3.63;88.45;99921.81;4994624;28;20152;-76
2020/12/08 07:45:32;;;;;;;27.45;12.80;;;;;;;3.68;87.89;99914.59;4977223;28;20038;-75
2020/12/08 07:48:00;;;;;;;24.55;13.18;;;;;;;3.90;87.38;99920.78;4994018;28;20423;-76
2020/12/08 07:50:28;;;;;;;28.38;13.65;;;;;;;3.83;87.67;99913.16;4977069;28;20035;-74
2020/12/08 07:53:17;;;;;;;28.42;13.18;;;;;;;3.79;87.88;99922.13;4994572;28;20034;-75
2020/12/08 07:55:44;;;;;;;28.80;12.93;;;;;;;3.81;88.28;99944.03;4993673;28;20424;-76
2020/12/08 07:58:10;;;;;;;23.63;12.75;;;;;;;3.79;88.03;99949.34;4977271;28;20447;-76
2020/12/08 08:00:37;;;;;;;30.75;13.75;;;;;;;3.73;88.74;99958.34;4977002;28;20057;-75
2020/12/08 08:03:02;;;;;;;30.88;13.68;;;;;;;3.52;88.93;99924.84;4994410;28;20034;-75
2020/12/08 08:05:30;;;;;;;29.15;14.00;;;;;;;3.69;89.03;99958.53;4976790;28;20107;-74
2020/12/08 08:07:56;;;;;;;27.70;12.50;;;;;;;3.89;88.25;99953.38;4976860;28;20042;-76
2020/12/08 08:10:21;;;;;;;26.45;13.80;;;;;;;3.86;87.95;99949.97;4994102;28;20391;-75
2020/12/08 08:12:46;;;;;;;30.20;13.57;;;;;;;3.91;87.79;99940.97;4976517;28;20034;-75
2020/12/08 08:15:12;;;;;;;28.00;13.23;;;;;;;4.05;87.49;99963.34;4994144;28;20034;-76
2020/12/08 08:17:38;;;;;;;29.13;13.68;;;;;;;3.84;87.73;99960.59;4992790;28;20439;-76
2020/12/08 08:20:04;;;;;;;25.45;13.00;;;;;;;3.88;87.96;99967.50;4993985;28;20579;-75
2020/12/08 08:22:29;;;;;;;25.17;13.32;;;;;;;3.91;87.71;99974.41;4976602;28;20049;-76
2020/12/08 08:24:55;;;;;;;23.02;12.15;;;;;;;3.94;87.38;99985.72;4993826;28;20117;-76
2020/12/08 08:27:20;;;;;;;23.90;12.10;;;;;;;3.79;87.32;99949.34;4994061;28;20037;-75
2020/12/08 08:29:46;;;;;;;22.80;12.10;;;;;;;4.00;86.88;99974.94;4976075;28;20038;-75
2020/12/08 08:32:11;;;;;;;20.45;11.20;;;;;;;4.18;86.72;99994.50;4960732;28;20034;-76
2020/12/08 08:34:36;;;;;;;19.30;10.57;;;;;;;3.94;86.34;99984.84;4994875;28;20105;-75
2020/12/08 08:37:02;;;;;;;17.33;9.88;;;;;;;3.94;86.70;99980.44;4993702;28;20038;-75
2020/12/08 08:39:27;;;;;;;14.98;10.30;;;;;;;3.99;86.99;99989.06;4976395;28;20038;-75
2020/12/08 08:41:53;;;;;;;15.43;9.85;;;;;;;4.00;87.31;100001.31;4993513;28;20045;-76
2020/12/08 08:44:19;;;;;;;15.75;9.05;;;;;;;4.07;87.05;99995.84;4975892;28;20049;-74
2020/12/08 08:46:44;;;;;;;18.17;9.20;;;;;;;3.83;86.77;99953.59;4993343;28;20030;-76
2020/12/08 08:49:16;;;;;;;16.02;9.82;;;;;;;4.12;86.48;100000.00;4993409;28;20494;-75
2020/12/08 08:51:43;;;;;;;15.35;9.48;;;;;;;3.95;87.44;99986.56;4993305;28;20449;-77
2020/12/08 08:54:09;;;;;;;13.80;8.38;;;;;;;4.15;86.48;99999.00;4993484;28;20344;-75
2020/12/08 08:56:34;;;;;;;12.65;8.65;;;;;;;4.05;86.78;99972.09;4993460;28;20088;-75
2020/12/08 08:59:00;;;;;;;12.73;8.23;;;;;;;4.18;86.02;99993.63;4993166;28;20049;-74
2020/12/08 09:01:25;;;;;;;13.77;8.38;;;;;;;4.11;86.23;99971.03;4993662;28;20054;-74
2020/12/08 09:03:50;;;;;;;12.60;8.55;;;;;;;4.24;85.01;99980.19;4993466;28;20050;-76
2020/12/08 09:06:16;;;;;;;13.48;9.75;;;;;;;4.24;85.42;99973.13;4975940;28;20093;-76
2020/12/08 09:08:41;;;;;;;14.65;7.93;;;;;;;4.21;84.73;99954.78;4993271;28;20077;-77
2020/12/08 09:11:07;;;;;;;13.63;8.13;;;;;;;4.32;83.99;99965.78;4995959;28;20042;-76
2020/12/08 09:13:34;;;;;;;13.75;8.27;;;;;;;4.34;84.55;99971.00;4980578;28;20034;-75
2020/12/08 09:15:59;;;;;;;14.93;8.80;;;;;;;4.28;85.19;99965.97;4993615;28;20026;-75
2020/12/08 09:18:26;;;;;;;11.00;7.55;;;;;;;4.34;83.95;99962.22;4959854;28;20088;-75
2020/12/08 09:20:52;;;;;;;11.90;7.90;;;;;;;4.30;84.01;99937.72;4993221;28;20113;-75
2020/12/08 09:23:17;;;;;;;10.27;7.35;;;;;;;4.51;83.11;99960.63;4993840;28;20126;-75
2020/12/08 09:25:42;;;;;;;12.88;8.25;;;;;;;4.58;83.37;99953.31;4975814;28;20068;-76
2020/12/08 09:28:08;;;;;;;11.73;6.85;;;;;;;4.60;83.04;99947.06;4976242;28;20046;-75
2020/12/08 09:30:36;;;;;;;9.70;5.88;;;;;;;4.66;81.97;99958.31;4979270;28;20034;-75
2020/12/08 09:33:01;;;;;;;8.80;6.20;;;;;;;4.74;81.37;99954.44;4964088;28;20034;-75
2020/12/08 09:35:27;;;;;;;9.10;5.97;;;;;;;4.64;81.47;99949.59;4979707;28;20514;-76
2020/12/08 09:37:52;;;;;;;9.10;5.60;;;;;;;4.53;82.25;99942.94;4997034;28;20039;-75
2020/12/08 09:40:17;;;;;;;8.77;6.07;;;;;;;4.56;81.86;99937.53;4963229;28;20089;-74
2020/12/08 09:42:44;;;;;;;10.32;6.50;;;;;;;4.42;82.59;99929.28;4997293;28;20034;-75
2020/12/08 09:45:11;;;;;;;10.45;5.97;;;;;;;4.67;83.14;99970.59;4996941;28;20046;-75
2020/12/08 09:47:37;;;;;;;10.43;6.57;;;;;;;4.75;82.54;99972.00;4996917;28;20027;-75
2020/12/08 09:50:09;;;;;;;10.35;5.95;;;;;;;4.83;81.14;99961.13;4996440;28;20034;-74
2020/12/08 09:52:34;;;;;;;8.35;5.55;;;;;;;4.80;80.53;99946.22;4996595;28;20077;-74
2020/12/08 09:54:59;;;;;;;9.65;5.20;;;;;;;4.62;80.06;99919.72;4996213;28;20474;-76
2020/12/08 09:57:25;;;;;;;9.27;5.15;;;;;;;4.59;81.09;99937.41;4996807;28;20030;-75
2020/12/08 09:59:51;;;;;;;7.20;4.72;;;;;;;4.75;80.50;99955.28;4979153;28;20034;-75
2020/12/08 10:02:17;;;;;;;7.18;4.78;;;;;;;4.68;80.57;99945.88;4996682;28;20077;-76
2020/12/08 10:04:43;;;;;;;7.75;5.20;;;;;;;4.35;81.22;99901.44;4996535;28;20125;-76
2020/12/08 10:07:10;;;;;;;13.43;5.45;;;;;;;4.59;81.75;99926.84;4978669;28;20124;-74
2020/12/08 10:09:35;;;;;;;7.10;4.80;;;;;;;4.54;81.28;99912.13;4996315;28;20030;-75
2020/12/08 10:12:00;;;;;;;10.10;4.60;;;;;;;4.65;80.23;99957.44;4978984;28;20121;-75
2020/12/08 10:14:26;;;;;;;7.95;4.43;;;;;;;4.68;80.50;99940.59;4963002;28;20176;-75
2020/12/08 10:16:51;;;;;;;8.20;4.50;;;;;;;4.74;80.90;99964.16;4978599;28;20070;-75
2020/12/08 10:19:17;;;;;;;7.55;4.90;;;;;;;4.78;80.31;99963.09;4996217;28;20042;-75
2020/12/08 10:21:42;;;;;;;7.80;3.80;;;;;;;4.80;79.78;99966.50;4996069;28;20026;-74
2020/12/08 10:24:07;;;;;;;7.22;3.58;;;;;;;4.51;80.35;99917.50;4978575;28;20054;-76
2020/12/08 10:26:33;;;;;;;6.43;4.00;;;;;;;4.82;80.63;99959.38;4978653;28;20035;-75
2020/12/08 10:28:58;;;;;;;7.28;3.50;;;;;;;4.93;79.00;99957.19;4995736;28;20382;-75
2020/12/08 10:31:24;;;;;;;5.25;3.30;;;;;;;4.76;79.26;99918.22;4978726;28;20085;-74
2020/12/08 10:33:49;;;;;;;5.30;3.25;;;;;;;4.99;79.09;99956.03;4995751;28;20042;-75
2020/12/08 10:36:14;;;;;;;5.75;3.13;;;;;;;4.95;78.70;99947.38;4978537;28;20031;-74
2020/12/08 10:38:40;;;;;;;5.88;3.05;;;;;;;4.72;78.79;99923.69;4996062;28;20026;-75
2020/12/08 10:41:05;;;;;;;6.88;3.08;;;;;;;4.74;79.37;99913.94;4977110;28;20416;-74
2020/12/08 10:43:31;;;;;;;6.10;3.22;;;;;;;5.07;78.40;99943.38;4995966;28;20113;-74
2020/12/08 10:45:57;;;;;;;6.65;3.50;;;;;;;4.88;78.69;99912.41;4995596;28;20034;-75
2020/12/08 10:48:22;;;;;;;10.20;3.55;;;;;;;5.23;78.81;99948.88;4995882;28;20030;-75
2020/12/08 10:50:47;;;;;;;8.05;3.65;;;;;;;5.21;78.92;99953.34;4978120;28;20082;-76
2020/12/08 10:53:13;;;;;;;11.60;3.80;;;;;;;5.12;78.57;99947.53;4995357;28;20049;-76
2020/12/08 10:55:38;;;;;;;7.63;3.10;;;;;;;5.09;77.56;99917.72;4995351;28;20471;-74
2020/12/08 10:58:03;;;;;;;5.13;3.17;;;;;;;5.11;76.49;99919.34;4995402;28;20030;-76
2020/12/08 11:00:32;;;;;;;4.65;2.92;;;;;;;5.14;76.90;99929.81;4995536;28;20030;-73
2020/12/08 11:03:01;;;;;;;5.65;3.58;;;;;;;5.21;77.06;99934.81;4977779;28;20034;-76
2020/12/08 11:05:26;;;;;;;7.82;3.38;;;;;;;5.25;77.44;99932.00;4978009;28;20033;-74
2020/12/08 11:07:52;;;;;;;7.57;3.70;;;;;;;5.02;76.88;99903.91;4995024;28;20038;-75
2020/12/08 11:10:17;;;;;;;9.35;3.80;;;;;;;5.23;77.40;99925.94;4995328;28;20365;-76
2020/12/08 11:12:42;;;;;;;6.65;4.00;;;;;;;5.29;76.91;99927.44;4995211;28;20030;-75
2020/12/08 11:15:08;;;;;;;6.00;3.60;;;;;;;5.14;77.05;99913.97;4977551;28;20455;-75
2020/12/08 11:17:36;;;;;;;7.75;4.18;;;;;;;5.14;77.30;99895.44;4995298;28;20431;-74
2020/12/08 11:20:04;;;;;;;8.23;3.83;;;;;;;5.34;77.93;99915.72;4978251;28;20089;-76
2020/12/08 11:22:31;;;;;;;5.88;3.85;;;;;;;5.41;77.02;99911.03;4995069;28;20031;-74
2020/12/08 11:24:57;;;;;;;6.45;4.30;;;;;;;5.30;78.28;99927.34;4977901;28;20046;-75
2020/12/08 11:27:22;;;;;;;7.00;4.85;;;;;;;5.26;77.56;99904.63;4977759;28;20377;-75
2020/12/08 11:29:48;;;;;;;7.35;4.05;;;;;;;5.27;78.32;99903.69;4977667;28;20072;-75
2020/12/08 11:32:15;;;;;;;7.63;4.70;;;;;;;5.39;78.65;99923.44;4977260;28;20038;-75